Terminal Aerodrome Forecast
Issued by NWS

Current Version | Previous Version | Text Only | Print | Product List | Glossary On
Versions: 1 2 3 4 5 6 7 8 9 10 11 12
149
FTUS42 KTAE 010532
TAFVLD
TAF
KVLD 010532Z 0106/0206 15003KT P6SM SCT020 BKN035
      TEMPO 0108/0112 4SM BR SCT002
     FM011500 16003KT 6SM TSRA SCT015 BKN035CB
     FM011900 18005KT P6SM SCT025 BKN250=

USA.gov is the U.S. government's official web portal to all federal, state and local government web resources and services.